sensor_id;sensor_type;location;lat;lon;timestamp;temperature;humidity
9973;DHT22;5027;53.560;10.062;2023-02-04T00:01:58;11.80;99.90
9973;DHT22;5027;53.560;10.062;2023-02-04T00:20:48;12.40;99.90
9973;DHT22;5027;53.560;10.062;2023-02-04T00:26:32;11.80;99.90
9973;DHT22;5027;53.560;10.062;2023-02-04T00:28:59;11.70;99.90
9973;DHT22;5027;53.560;10.062;2023-02-04T00:31:26;11.70;99.90
9973;DHT22;5027;53.560;10.062;2023-02-04T00:37:11;11.70;99.90
9973;DHT22;5027;53.560;10.062;2023-02-04T00:39:38;11.50;99.90
9973;DHT22;5027;53.560;10.062;2023-02-04T00:42:05;11.30;99.90
9973;DHT22;5027;53.560;10.062;2023-02-04T00:44:35;11.20;99.90
9973;DHT22;5027;53.560;10.062;2023-02-04T00:47:03;11.20;99.90
9973;DHT22;5027;53.560;10.062;2023-02-04T00:49:33;11.00;99.90
9973;DHT22;5027;53.560;10.062;2023-02-04T00:52:00;10.70;99.90
9973;DHT22;5027;53.560;10.062;2023-02-04T00:54:28;10.50;99.90
9973;DHT22;5027;53.560;10.062;2023-02-04T00:57:00;10.70;99.90
9973;DHT22;5027;53.560;10.062;2023-02-04T00:59:29;11.10;99.90
9973;DHT22;5027;53.560;10.062;2023-02-04T01:01:56;11.30;99.90
9973;DHT22;5027;53.560;10.062;2023-02-04T01:04:26;11.40;99.90
9973;DHT22;5027;53.560;10.062;2023-02-04T01:06:57;11.60;99.90
9973;DHT22;5027;53.560;10.062;2023-02-04T01:09:26;11.60;99.90
9973;DHT22;5027;53.560;10.062;2023-02-04T01:11:53;11.50;99.90
9973;DHT22;5027;53.560;10.062;2023-02-04T01:17:19;11.70;99.90
9973;DHT22;5027;53.560;10.062;2023-02-04T01:19:55;11.90;99.90
9973;DHT22;5027;53.560;10.062;2023-02-04T01:22:25;11.60;99.90
9973;DHT22;5027;53.560;10.062;2023-02-04T01:24:55;11.10;99.90
9973;DHT22;5027;53.560;10.062;2023-02-04T01:27:43;11.20;99.90
9973;DHT22;5027;53.560;10.062;2023-02-04T01:30:13;11.00;99.90
9973;DHT22;5027;53.560;10.062;2023-02-04T01:32:41;10.70;99.90
9973;DHT22;5027;53.560;10.062;2023-02-04T01:35:10;10.50;99.90
9973;DHT22;5027;53.560;10.062;2023-02-04T01:37:44;10.30;99.90
9973;DHT22;5027;53.560;10.062;2023-02-04T01:40:13;10.40;99.90
9973;DHT22;5027;53.560;10.062;2023-02-04T01:42:40;10.40;99.90
9973;DHT22;5027;53.560;10.062;2023-02-04T01:45:07;10.30;99.90
9973;DHT22;5027;53.560;10.062;2023-02-04T01:47:34;10.20;99.90
9973;DHT22;5027;53.560;10.062;2023-02-04T01:50:01;10.10;99.90
9973;DHT22;5027;53.560;10.062;2023-02-04T01:52:33;10.00;99.90
9973;DHT22;5027;53.560;10.062;2023-02-04T01:55:01;10.00;99.90
9973;DHT22;5027;53.560;10.062;2023-02-04T01:57:28;10.00;99.90
9973;DHT22;5027;53.560;10.062;2023-02-04T01:59:55;10.00;99.90
9973;DHT22;5027;53.560;10.062;2023-02-04T02:05:09;10.30;99.90
9973;DHT22;5027;53.560;10.062;2023-02-04T02:07:36;10.30;99.90
9973;DHT22;5027;53.560;10.062;2023-02-04T02:10:05;10.50;99.90
9973;DHT22;5027;53.560;10.062;2023-02-04T02:12:35;10.20;99.90
9973;DHT22;5027;53.560;10.062;2023-02-04T02:15:03;10.20;99.90
9973;DHT22;5027;53.560;10.062;2023-02-04T02:17:30;10.10;99.90
9973;DHT22;5027;53.560;10.062;2023-02-04T02:19:57;10.10;99.90
9973;DHT22;5027;53.560;10.062;2023-02-04T02:22:34;10.00;99.90
9973;DHT22;5027;53.560;10.062;2023-02-04T02:25:13;9.90;99.90
9973;DHT22;5027;53.560;10.062;2023-02-04T02:27:42;9.90;99.90
9973;DHT22;5027;53.560;10.062;2023-02-04T02:30:10;9.90;99.90
9973;DHT22;5027;53.560;10.062;2023-02-04T02:32:37;9.80;99.90
9973;DHT22;5027;53.560;10.062;2023-02-04T02:35:05;9.80;99.90
9973;DHT22;5027;53.560;10.062;2023-02-04T02:37:32;9.70;99.90
9973;DHT22;5027;53.560;10.062;2023-02-04T02:39:58;9.70;99.90
9973;DHT22;5027;53.560;10.062;2023-02-04T02:42:25;9.70;99.90
9973;DHT22;5027;53.560;10.062;2023-02-04T02:44:52;9.60;99.90
9973;DHT22;5027;53.560;10.062;2023-02-04T02:47:20;9.60;99.90
9973;DHT22;5027;53.560;10.062;2023-02-04T02:49:50;9.50;99.90
9973;DHT22;5027;53.560;10.062;2023-02-04T02:52:17;9.50;99.90
9973;DHT22;5027;53.560;10.062;2023-02-04T02:54:45;9.40;99.90
9973;DHT22;5027;53.560;10.062;2023-02-04T02:57:18;9.40;99.90
9973;DHT22;5027;53.560;10.062;2023-02-04T02:59:45;9.40;99.90
9973;DHT22;5027;53.560;10.062;2023-02-04T03:02:13;9.30;99.90
9973;DHT22;5027;53.560;10.062;2023-02-04T03:04:44;9.40;99.90
9973;DHT22;5027;53.560;10.062;2023-02-04T03:07:14;9.40;99.90
9973;DHT22;5027;53.560;10.062;2023-02-04T03:09:41;9.30;99.90
9973;DHT22;5027;53.560;10.062;2023-02-04T03:12:08;9.30;99.90
9973;DHT22;5027;53.560;10.062;2023-02-04T03:14:35;9.30;99.90
9973;DHT22;5027;53.560;10.062;2023-02-04T03:17:06;9.20;99.90
9973;DHT22;5027;53.560;10.062;2023-02-04T03:19:34;9.10;99.90
9973;DHT22;5027;53.560;10.062;2023-02-04T03:22:03;9.10;99.90
9973;DHT22;5027;53.560;10.062;2023-02-04T03:24:31;9.00;99.90
9973;DHT22;5027;53.560;10.062;2023-02-04T03:26:58;9.00;99.90
9973;DHT22;5027;53.560;10.062;2023-02-04T03:29:25;9.00;99.90
9973;DHT22;5027;53.560;10.062;2023-02-04T03:31:53;9.00;99.90
9973;DHT22;5027;53.560;10.062;2023-02-04T03:34:21;9.00;99.90
9973;DHT22;5027;53.560;10.062;2023-02-04T03:36:48;9.00;99.90
9973;DHT22;5027;53.560;10.062;2023-02-04T03:39:15;9.00;99.90
9973;DHT22;5027;53.560;10.062;2023-02-04T03:41:41;8.90;99.90
9973;DHT22;5027;53.560;10.062;2023-02-04T03:44:08;8.90;99.90
9973;DHT22;5027;53.560;10.062;2023-02-04T03:46:35;8.90;99.90
9973;DHT22;5027;53.560;10.062;2023-02-04T03:49:02;9.00;99.90
9973;DHT22;5027;53.560;10.062;2023-02-04T03:51:28;9.00;99.90
9973;DHT22;5027;53.560;10.062;2023-02-04T03:53:55;9.00;99.90
9973;DHT22;5027;53.560;10.062;2023-02-04T03:56:21;9.00;99.90
9973;DHT22;5027;53.560;10.062;2023-02-04T03:58:48;8.90;99.90
9973;DHT22;5027;53.560;10.062;2023-02-04T04:01:15;8.90;99.90
9973;DHT22;5027;53.560;10.062;2023-02-04T04:03:42;9.00;99.90
9973;DHT22;5027;53.560;10.062;2023-02-04T04:06:08;9.10;99.90
9973;DHT22;5027;53.560;10.062;2023-02-04T04:08:37;9.10;99.90
9973;DHT22;5027;53.560;10.062;2023-02-04T04:11:04;9.10;99.90
9973;DHT22;5027;53.560;10.062;2023-02-04T04:13:31;9.10;99.90
9973;DHT22;5027;53.560;10.062;2023-02-04T04:15:57;9.10;99.90
9973;DHT22;5027;53.560;10.062;2023-02-04T04:18:24;9.10;99.90
9973;DHT22;5027;53.560;10.062;2023-02-04T04:20:51;9.10;99.90
9973;DHT22;5027;53.560;10.062;2023-02-04T04:23:17;9.10;99.90
9973;DHT22;5027;53.560;10.062;2023-02-04T04:25:44;9.10;99.90
9973;DHT22;5027;53.560;10.062;2023-02-04T04:28:10;9.10;99.90
9973;DHT22;5027;53.560;10.062;2023-02-04T04:30:37;9.10;99.90
9973;DHT22;5027;53.560;10.062;2023-02-04T04:33:04;9.10;99.90
9973;DHT22;5027;53.560;10.062;2023-02-04T04:35:31;9.10;99.90
9973;DHT22;5027;53.560;10.062;2023-02-04T04:37:58;9.20;99.90
9973;DHT22;5027;53.560;10.062;2023-02-04T04:40:24;9.10;99.90
9973;DHT22;5027;53.560;10.062;2023-02-04T04:42:51;9.20;99.90
9973;DHT22;5027;53.560;10.062;2023-02-04T04:45:19;9.10;99.90
9973;DHT22;5027;53.560;10.062;2023-02-04T04:47:46;9.10;99.90
9973;DHT22;5027;53.560;10.062;2023-02-04T04:50:13;9.10;99.90
9973;DHT22;5027;53.560;10.062;2023-02-04T04:52:40;9.10;99.90
9973;DHT22;5027;53.560;10.062;2023-02-04T04:55:07;9.00;99.90
9973;DHT22;5027;53.560;10.062;2023-02-04T04:57:34;9.00;99.90
9973;DHT22;5027;53.560;10.062;2023-02-04T05:00:00;9.00;99.90
9973;DHT22;5027;53.560;10.062;2023-02-04T05:02:27;9.10;99.90
9973;DHT22;5027;53.560;10.062;2023-02-04T05:04:53;9.10;99.90
9973;DHT22;5027;53.560;10.062;2023-02-04T05:07:20;9.00;99.90
9973;DHT22;5027;53.560;10.062;2023-02-04T05:09:47;8.90;99.90
9973;DHT22;5027;53.560;10.062;2023-02-04T05:12:14;8.90;99.90
9973;DHT22;5027;53.560;10.062;2023-02-04T05:14:40;8.80;99.90
9973;DHT22;5027;53.560;10.062;2023-02-04T05:17:07;8.80;99.90
9973;DHT22;5027;53.560;10.062;2023-02-04T05:19:34;8.80;99.90
9973;DHT22;5027;53.560;10.062;2023-02-04T05:22:00;8.80;99.90
9973;DHT22;5027;53.560;10.062;2023-02-04T05:24:27;8.80;99.90
9973;DHT22;5027;53.560;10.062;2023-02-04T05:26:54;8.80;99.90
9973;DHT22;5027;53.560;10.062;2023-02-04T05:29:20;8.70;99.90
9973;DHT22;5027;53.560;10.062;2023-02-04T05:31:47;8.70;99.90
9973;DHT22;5027;53.560;10.062;2023-02-04T05:34:14;8.70;99.90
9973;DHT22;5027;53.560;10.062;2023-02-04T05:36:41;8.70;99.90
9973;DHT22;5027;53.560;10.062;2023-02-04T05:39:07;8.70;99.90
9973;DHT22;5027;53.560;10.062;2023-02-04T05:41:34;8.60;99.90
9973;DHT22;5027;53.560;10.062;2023-02-04T05:44:01;8.70;99.90
9973;DHT22;5027;53.560;10.062;2023-02-04T05:46:27;8.70;99.90
9973;DHT22;5027;53.560;10.062;2023-02-04T05:48:54;8.60;99.90
9973;DHT22;5027;53.560;10.062;2023-02-04T05:51:21;8.60;99.90
9973;DHT22;5027;53.560;10.062;2023-02-04T05:53:47;8.50;99.90
9973;DHT22;5027;53.560;10.062;2023-02-04T05:56:15;8.50;99.90
9973;DHT22;5027;53.560;10.062;2023-02-04T05:58:41;8.50;99.90
9973;DHT22;5027;53.560;10.062;2023-02-04T06:01:08;8.40;99.90
9973;DHT22;5027;53.560;10.062;2023-02-04T06:03:35;8.40;99.90
9973;DHT22;5027;53.560;10.062;2023-02-04T06:06:01;8.40;99.90
9973;DHT22;5027;53.560;10.062;2023-02-04T06:08:28;8.40;99.90
9973;DHT22;5027;53.560;10.062;2023-02-04T06:10:55;8.40;99.90
9973;DHT22;5027;53.560;10.062;2023-02-04T06:13:21;8.40;99.90
9973;DHT22;5027;53.560;10.062;2023-02-04T06:15:51;8.40;99.90
9973;DHT22;5027;53.560;10.062;2023-02-04T06:18:17;8.30;99.90
9973;DHT22;5027;53.560;10.062;2023-02-04T06:20:44;8.30;99.90
9973;DHT22;5027;53.560;10.062;2023-02-04T06:23:11;8.30;99.90
9973;DHT22;5027;53.560;10.062;2023-02-04T06:25:37;8.20;99.90
9973;DHT22;5027;53.560;10.062;2023-02-04T06:28:04;8.20;99.90
9973;DHT22;5027;53.560;10.062;2023-02-04T06:30:31;8.20;99.90
9973;DHT22;5027;53.560;10.062;2023-02-04T06:32:58;8.20;99.90
9973;DHT22;5027;53.560;10.062;2023-02-04T06:35:25;8.20;99.90
9973;DHT22;5027;53.560;10.062;2023-02-04T06:37:51;8.20;99.90
9973;DHT22;5027;53.560;10.062;2023-02-04T06:40:18;8.30;99.90
9973;DHT22;5027;53.560;10.062;2023-02-04T06:42:45;8.30;99.90
9973;DHT22;5027;53.560;10.062;2023-02-04T06:45:11;8.30;99.90
9973;DHT22;5027;53.560;10.062;2023-02-04T06:47:38;8.20;99.90
9973;DHT22;5027;53.560;10.062;2023-02-04T06:50:05;8.20;99.90
9973;DHT22;5027;53.560;10.062;2023-02-04T06:52:32;8.20;99.90
9973;DHT22;5027;53.560;10.062;2023-02-04T06:54:58;8.20;99.90
9973;DHT22;5027;53.560;10.062;2023-02-04T06:57:25;8.20;99.90
9973;DHT22;5027;53.560;10.062;2023-02-04T06:59:52;8.20;99.90
9973;DHT22;5027;53.560;10.062;2023-02-04T07:02:18;8.20;99.90
9973;DHT22;5027;53.560;10.062;2023-02-04T07:04:45;8.20;99.90
9973;DHT22;5027;53.560;10.062;2023-02-04T07:07:13;8.30;99.90
9973;DHT22;5027;53.560;10.062;2023-02-04T07:09:40;8.20;99.90
9973;DHT22;5027;53.560;10.062;2023-02-04T07:12:07;8.30;99.90
9973;DHT22;5027;53.560;10.062;2023-02-04T07:14:34;8.20;99.90
9973;DHT22;5027;53.560;10.062;2023-02-04T07:17:01;8.20;99.90
9973;DHT22;5027;53.560;10.062;2023-02-04T07:19:27;8.30;99.90
9973;DHT22;5027;53.560;10.062;2023-02-04T07:21:54;8.20;99.90
9973;DHT22;5027;53.560;10.062;2023-02-04T07:24:22;8.20;99.90
9973;DHT22;5027;53.560;10.062;2023-02-04T07:26:49;8.30;99.90
9973;DHT22;5027;53.560;10.062;2023-02-04T07:29:16;8.30;99.90
9973;DHT22;5027;53.560;10.062;2023-02-04T07:31:51;8.30;99.90
9973;DHT22;5027;53.560;10.062;2023-02-04T07:34:19;8.30;99.90
9973;DHT22;5027;53.560;10.062;2023-02-04T07:36:46;8.30;99.90
9973;DHT22;5027;53.560;10.062;2023-02-04T07:39:13;8.30;99.90
9973;DHT22;5027;53.560;10.062;2023-02-04T07:41:40;8.40;99.90
9973;DHT22;5027;53.560;10.062;2023-02-04T07:44:07;8.40;99.90
9973;DHT22;5027;53.560;10.062;2023-02-04T07:46:33;8.40;99.90
9973;DHT22;5027;53.560;10.062;2023-02-04T07:49:00;8.40;99.90
9973;DHT22;5027;53.560;10.062;2023-02-04T07:51:27;8.50;99.90
9973;DHT22;5027;53.560;10.062;2023-02-04T07:53:54;8.50;99.90
9973;DHT22;5027;53.560;10.062;2023-02-04T07:56:21;8.60;99.90
9973;DHT22;5027;53.560;10.062;2023-02-04T07:58:48;8.50;99.90
9973;DHT22;5027;53.560;10.062;2023-02-04T08:01:15;8.50;99.90
9973;DHT22;5027;53.560;10.062;2023-02-04T08:03:42;8.60;99.90
9973;DHT22;5027;53.560;10.062;2023-02-04T08:06:09;8.50;99.90
9973;DHT22;5027;53.560;10.062;2023-02-04T08:08:36;8.60;99.90
9973;DHT22;5027;53.560;10.062;2023-02-04T08:11:02;8.60;99.90
9973;DHT22;5027;53.560;10.062;2023-02-04T08:13:29;8.60;99.90
9973;DHT22;5027;53.560;10.062;2023-02-04T08:15:56;8.70;99.90
9973;DHT22;5027;53.560;10.062;2023-02-04T08:18:23;8.60;99.90
9973;DHT22;5027;53.560;10.062;2023-02-04T08:20:50;8.60;99.90
9973;DHT22;5027;53.560;10.062;2023-02-04T08:23:17;8.60;99.90
9973;DHT22;5027;53.560;10.062;2023-02-04T08:25:44;8.60;99.90
9973;DHT22;5027;53.560;10.062;2023-02-04T08:28:11;8.60;99.90
9973;DHT22;5027;53.560;10.062;2023-02-04T08:30:37;8.70;99.90
9973;DHT22;5027;53.560;10.062;2023-02-04T08:33:04;8.70;99.90
9973;DHT22;5027;53.560;10.062;2023-02-04T08:35:31;8.70;99.90
9973;DHT22;5027;53.560;10.062;2023-02-04T08:37:58;8.70;99.90
9973;DHT22;5027;53.560;10.062;2023-02-04T08:40:24;8.70;99.90
9973;DHT22;5027;53.560;10.062;2023-02-04T08:42:51;8.80;99.90
9973;DHT22;5027;53.560;10.062;2023-02-04T08:45:17;8.80;99.90
9973;DHT22;5027;53.560;10.062;2023-02-04T08:47:44;8.70;99.90
9973;DHT22;5027;53.560;10.062;2023-02-04T08:50:11;8.80;99.90
9973;DHT22;5027;53.560;10.062;2023-02-04T08:52:38;8.90;99.90
9973;DHT22;5027;53.560;10.062;2023-02-04T08:55:05;8.80;99.90
9973;DHT22;5027;53.560;10.062;2023-02-04T08:57:32;8.80;99.90
9973;DHT22;5027;53.560;10.062;2023-02-04T09:00:00;8.80;99.90
9973;DHT22;5027;53.560;10.062;2023-02-04T09:02:27;8.90;1.00
9973;DHT22;5027;53.560;10.062;2023-02-04T09:05:57;9.00;99.90
9973;DHT22;5027;53.560;10.062;2023-02-04T09:08:33;9.10;99.90
9973;DHT22;5027;53.560;10.062;2023-02-04T09:10:59;9.10;99.90
9973;DHT22;5027;53.560;10.062;2023-02-04T09:13:26;9.20;99.90
9973;DHT22;5027;53.560;10.062;2023-02-04T09:15:53;9.20;99.90
9973;DHT22;5027;53.560;10.062;2023-02-04T09:18:19;9.20;99.90
9973;DHT22;5027;53.560;10.062;2023-02-04T09:20:48;9.10;99.90
9973;DHT22;5027;53.560;10.062;2023-02-04T09:23:15;9.10;99.90
9973;DHT22;5027;53.560;10.062;2023-02-04T09:25:43;9.20;99.90
9973;DHT22;5027;53.560;10.062;2023-02-04T09:28:11;9.30;99.90
9973;DHT22;5027;53.560;10.062;2023-02-04T09:30:39;9.10;99.90
9973;DHT22;5027;53.560;10.062;2023-02-04T09:33:07;9.10;99.90
9973;DHT22;5027;53.560;10.062;2023-02-04T09:35:34;9.00;99.90
9973;DHT22;5027;53.560;10.062;2023-02-04T09:38:01;9.00;99.90
9973;DHT22;5027;53.560;10.062;2023-02-04T09:40:30;9.10;99.90
9973;DHT22;5027;53.560;10.062;2023-02-04T09:43:01;9.20;99.90
9973;DHT22;5027;53.560;10.062;2023-02-04T09:45:31;9.40;99.90
9973;DHT22;5027;53.560;10.062;2023-02-04T09:48:00;9.40;99.90
9973;DHT22;5027;53.560;10.062;2023-02-04T09:50:29;9.30;99.90
9973;DHT22;5027;53.560;10.062;2023-02-04T09:53:00;9.20;99.90
9973;DHT22;5027;53.560;10.062;2023-02-04T09:55:34;9.30;99.90
9973;DHT22;5027;53.560;10.062;2023-02-04T09:58:01;9.30;99.90
9973;DHT22;5027;53.560;10.062;2023-02-04T10:00:29;9.30;99.90
9973;DHT22;5027;53.560;10.062;2023-02-04T10:02:59;9.50;99.90
9973;DHT22;5027;53.560;10.062;2023-02-04T10:05:31;9.50;99.90
9973;DHT22;5027;53.560;10.062;2023-02-04T10:07:59;9.60;99.90
9973;DHT22;5027;53.560;10.062;2023-02-04T10:10:26;9.70;99.90
9973;DHT22;5027;53.560;10.062;2023-02-04T10:12:56;9.70;99.90
9973;DHT22;5027;53.560;10.062;2023-02-04T10:15:24;9.70;99.90
9973;DHT22;5027;53.560;10.062;2023-02-04T10:17:53;9.60;99.90
9973;DHT22;5027;53.560;10.062;2023-02-04T10:20:22;9.60;99.90
9973;DHT22;5027;53.560;10.062;2023-02-04T10:22:53;9.70;99.90
9973;DHT22;5027;53.560;10.062;2023-02-04T10:25:22;9.80;99.90
9973;DHT22;5027;53.560;10.062;2023-02-04T10:27:57;9.80;99.90
9973;DHT22;5027;53.560;10.062;2023-02-04T10:30:37;9.90;99.90
9973;DHT22;5027;53.560;10.062;2023-02-04T10:33:22;9.90;99.90
9973;DHT22;5027;53.560;10.062;2023-02-04T10:35:54;9.90;99.90
9973;DHT22;5027;53.560;10.062;2023-02-04T10:38:22;9.90;99.90
9973;DHT22;5027;53.560;10.062;2023-02-04T10:41:00;9.90;99.90
9973;DHT22;5027;53.560;10.062;2023-02-04T10:43:27;9.90;99.90
9973;DHT22;5027;53.560;10.062;2023-02-04T10:45:58;9.90;99.90
9973;DHT22;5027;53.560;10.062;2023-02-04T10:48:27;9.90;99.90
9973;DHT22;5027;53.560;10.062;2023-02-04T10:50:56;9.90;99.60
9973;DHT22;5027;53.560;10.062;2023-02-04T10:53:24;9.80;99.50
9973;DHT22;5027;53.560;10.062;2023-02-04T10:56:20;9.80;99.90
9973;DHT22;5027;53.560;10.062;2023-02-04T10:58:50;9.80;99.90
9973;DHT22;5027;53.560;10.062;2023-02-04T11:01:17;9.80;99.90
9973;DHT22;5027;53.560;10.062;2023-02-04T11:03:44;9.80;99.90
9973;DHT22;5027;53.560;10.062;2023-02-04T11:06:20;9.80;99.90
9973;DHT22;5027;53.560;10.062;2023-02-04T11:08:48;9.80;99.80
9973;DHT22;5027;53.560;10.062;2023-02-04T11:11:24;9.80;98.90
9973;DHT22;5027;53.560;10.062;2023-02-04T11:26:43;9.70;99.20
9973;DHT22;5027;53.560;10.062;2023-02-04T11:29:25;9.70;99.30
9973;DHT22;5027;53.560;10.062;2023-02-04T11:31:59;9.70;99.00
9973;DHT22;5027;53.560;10.062;2023-02-04T11:34:29;9.80;99.10
9973;DHT22;5027;53.560;10.062;2023-02-04T11:39:40;9.70;98.90
9973;DHT22;5027;53.560;10.062;2023-02-04T11:42:25;9.70;98.80
9973;DHT22;5027;53.560;10.062;2023-02-04T11:45:00;9.60;98.80
9973;DHT22;5027;53.560;10.062;2023-02-04T11:47:34;9.60;98.90
9973;DHT22;5027;53.560;10.062;2023-02-04T11:50:10;9.70;98.50
9973;DHT22;5027;53.560;10.062;2023-02-04T11:52:39;9.60;98.30
9973;DHT22;5027;53.560;10.062;2023-02-04T11:55:09;9.60;98.70
9973;DHT22;5027;53.560;10.062;2023-02-04T11:57:41;9.70;98.70
9973;DHT22;5027;53.560;10.062;2023-02-04T12:00:16;10.00;99.10
9973;DHT22;5027;53.560;10.062;2023-02-04T12:02:49;10.10;97.90
9973;DHT22;5027;53.560;10.062;2023-02-04T12:05:19;10.30;98.80
9973;DHT22;5027;53.560;10.062;2023-02-04T12:07:47;10.30;98.10
9973;DHT22;5027;53.560;10.062;2023-02-04T12:12:51;10.50;98.70
9973;DHT22;5027;53.560;10.062;2023-02-04T12:15:32;10.70;98.00
9973;DHT22;5027;53.560;10.062;2023-02-04T12:18:08;10.60;96.80
9973;DHT22;5027;53.560;10.062;2023-02-04T12:20:38;10.40;96.80
9973;DHT22;5027;53.560;10.062;2023-02-04T12:23:05;10.40;97.80
9973;DHT22;5027;53.560;10.062;2023-02-04T12:25:31;10.50;97.00
9973;DHT22;5027;53.560;10.062;2023-02-04T12:27:59;10.40;96.70
9973;DHT22;5027;53.560;10.062;2023-02-04T12:30:26;10.30;96.40
9973;DHT22;5027;53.560;10.062;2023-02-04T12:32:53;10.30;96.00
9973;DHT22;5027;53.560;10.062;2023-02-04T12:35:19;10.30;96.40
9973;DHT22;5027;53.560;10.062;2023-02-04T12:37:46;10.40;96.60
9973;DHT22;5027;53.560;10.062;2023-02-04T12:40:14;10.50;97.10
9973;DHT22;5027;53.560;10.062;2023-02-04T12:42:42;10.60;97.00
9973;DHT22;5027;53.560;10.062;2023-02-04T12:45:10;10.80;96.80
9973;DHT22;5027;53.560;10.062;2023-02-04T12:47:37;10.80;96.30
9973;DHT22;5027;53.560;10.062;2023-02-04T12:50:05;10.80;97.50
9973;DHT22;5027;53.560;10.062;2023-02-04T12:52:32;11.00;96.60
9973;DHT22;5027;53.560;10.062;2023-02-04T12:54:59;11.10;96.20
9973;DHT22;5027;53.560;10.062;2023-02-04T12:57:26;11.10;96.40
9973;DHT22;5027;53.560;10.062;2023-02-04T12:59:53;11.10;95.90
9973;DHT22;5027;53.560;10.062;2023-02-04T13:02:23;11.10;95.20
9973;DHT22;5027;53.560;10.062;2023-02-04T13:04:49;11.10;95.50
9973;DHT22;5027;53.560;10.062;2023-02-04T13:07:16;11.10;95.10
9973;DHT22;5027;53.560;10.062;2023-02-04T13:09:43;11.10;95.30
9973;DHT22;5027;53.560;10.062;2023-02-04T13:12:14;11.10;95.90
9973;DHT22;5027;53.560;10.062;2023-02-04T13:14:41;11.20;96.00
9973;DHT22;5027;53.560;10.062;2023-02-04T13:17:09;11.30;95.50
9973;DHT22;5027;53.560;10.062;2023-02-04T13:19:36;11.40;95.40
9973;DHT22;5027;53.560;10.062;2023-02-04T13:22:02;11.50;95.90
9973;DHT22;5027;53.560;10.062;2023-02-04T13:24:29;11.60;95.60
9973;DHT22;5027;53.560;10.062;2023-02-04T13:26:56;11.60;95.10
9973;DHT22;5027;53.560;10.062;2023-02-04T13:29:22;11.50;95.50
9973;DHT22;5027;53.560;10.062;2023-02-04T13:31:49;11.60;94.90
9973;DHT22;5027;53.560;10.062;2023-02-04T13:34:17;11.60;95.20
9973;DHT22;5027;53.560;10.062;2023-02-04T13:36:44;11.70;94.60
9973;DHT22;5027;53.560;10.062;2023-02-04T13:39:11;11.70;94.40
9973;DHT22;5027;53.560;10.062;2023-02-04T13:41:38;11.60;94.40
9973;DHT22;5027;53.560;10.062;2023-02-04T13:44:05;11.50;94.50
9973;DHT22;5027;53.560;10.062;2023-02-04T13:46:32;11.40;94.00
9973;DHT22;5027;53.560;10.062;2023-02-04T13:48:59;11.40;94.20
9973;DHT22;5027;53.560;10.062;2023-02-04T13:51:26;11.40;94.50
9973;DHT22;5027;53.560;10.062;2023-02-04T13:53:52;11.40;94.60
9973;DHT22;5027;53.560;10.062;2023-02-04T13:56:19;11.40;94.20
9973;DHT22;5027;53.560;10.062;2023-02-04T13:58:46;11.40;94.20
9973;DHT22;5027;53.560;10.062;2023-02-04T14:01:13;11.30;94.10
9973;DHT22;5027;53.560;10.062;2023-02-04T14:03:40;11.40;94.10
9973;DHT22;5027;53.560;10.062;2023-02-04T14:06:08;11.30;94.30
9973;DHT22;5027;53.560;10.062;2023-02-04T14:08:35;11.30;94.50
9973;DHT22;5027;53.560;10.062;2023-02-04T14:11:02;11.20;94.60
9973;DHT22;5027;53.560;10.062;2023-02-04T14:13:29;11.20;94.80
9973;DHT22;5027;53.560;10.062;2023-02-04T14:15:56;11.10;94.80
9973;DHT22;5027;53.560;10.062;2023-02-04T14:18:22;11.00;94.40
9973;DHT22;5027;53.560;10.062;2023-02-04T14:20:49;10.90;94.80
9973;DHT22;5027;53.560;10.062;2023-02-04T14:23:16;10.90;94.90
9973;DHT22;5027;53.560;10.062;2023-02-04T14:25:43;10.90;95.00
9973;DHT22;5027;53.560;10.062;2023-02-04T14:28:09;10.90;95.10
9973;DHT22;5027;53.560;10.062;2023-02-04T14:30:37;10.80;94.90
9973;DHT22;5027;53.560;10.062;2023-02-04T14:33:04;10.80;95.10
9973;DHT22;5027;53.560;10.062;2023-02-04T14:35:31;10.80;95.20
9973;DHT22;5027;53.560;10.062;2023-02-04T14:37:58;10.80;95.00
9973;DHT22;5027;53.560;10.062;2023-02-04T14:40:25;10.80;95.30
9973;DHT22;5027;53.560;10.062;2023-02-04T14:42:51;10.70;95.60
9973;DHT22;5027;53.560;10.062;2023-02-04T14:45:18;10.70;95.90
9973;DHT22;5027;53.560;10.062;2023-02-04T14:47:45;10.60;95.90
9973;DHT22;5027;53.560;10.062;2023-02-04T14:50:14;10.60;95.80
9973;DHT22;5027;53.560;10.062;2023-02-04T14:52:41;10.60;95.80
9973;DHT22;5027;53.560;10.062;2023-02-04T14:55:08;10.50;95.80
9973;DHT22;5027;53.560;10.062;2023-02-04T14:57:38;10.50;95.80
9973;DHT22;5027;53.560;10.062;2023-02-04T15:00:05;10.50;96.00
9973;DHT22;5027;53.560;10.062;2023-02-04T15:02:35;10.40;96.00
9973;DHT22;5027;53.560;10.062;2023-02-04T15:05:02;10.40;96.00
9973;DHT22;5027;53.560;10.062;2023-02-04T15:07:29;10.40;96.00
9973;DHT22;5027;53.560;10.062;2023-02-04T15:09:56;10.30;96.10
9973;DHT22;5027;53.560;10.062;2023-02-04T15:12:22;10.30;96.30
9973;DHT22;5027;53.560;10.062;2023-02-04T15:14:49;10.30;96.30
9973;DHT22;5027;53.560;10.062;2023-02-04T15:17:16;10.30;96.20
9973;DHT22;5027;53.560;10.062;2023-02-04T15:19:43;10.30;96.30
9973;DHT22;5027;53.560;10.062;2023-02-04T15:22:10;10.30;96.20
9973;DHT22;5027;53.560;10.062;2023-02-04T15:24:38;10.20;96.30
9973;DHT22;5027;53.560;10.062;2023-02-04T15:27:05;10.20;96.20
9973;DHT22;5027;53.560;10.062;2023-02-04T15:29:32;10.20;96.00
9973;DHT22;5027;53.560;10.062;2023-02-04T15:31:59;10.20;95.90
9973;DHT22;5027;53.560;10.062;2023-02-04T15:34:26;10.20;95.90
9973;DHT22;5027;53.560;10.062;2023-02-04T15:36:52;10.20;96.00
9973;DHT22;5027;53.560;10.062;2023-02-04T15:39:19;10.20;96.00
9973;DHT22;5027;53.560;10.062;2023-02-04T15:41:46;10.20;95.60
9973;DHT22;5027;53.560;10.062;2023-02-04T15:44:12;10.10;95.80
9973;DHT22;5027;53.560;10.062;2023-02-04T15:46:39;10.10;95.80
9973;DHT22;5027;53.560;10.062;2023-02-04T15:49:06;10.10;95.80
9973;DHT22;5027;53.560;10.062;2023-02-04T15:51:32;10.10;95.70
9973;DHT22;5027;53.560;10.062;2023-02-04T15:53:59;10.00;95.60
9973;DHT22;5027;53.560;10.062;2023-02-04T15:56:26;10.00;95.90
9973;DHT22;5027;53.560;10.062;2023-02-04T15:58:53;10.00;95.70
9973;DHT22;5027;53.560;10.062;2023-02-04T16:01:20;10.00;95.80
9973;DHT22;5027;53.560;10.062;2023-02-04T16:03:47;10.00;95.80
9973;DHT22;5027;53.560;10.062;2023-02-04T16:06:15;10.00;95.80
9973;DHT22;5027;53.560;10.062;2023-02-04T16:08:41;9.90;96.40
9973;DHT22;5027;53.560;10.062;2023-02-04T16:11:08;9.90;96.40
9973;DHT22;5027;53.560;10.062;2023-02-04T16:13:35;9.90;96.40
9973;DHT22;5027;53.560;10.062;2023-02-04T16:16:02;9.90;96.40
9973;DHT22;5027;53.560;10.062;2023-02-04T16:18:29;10.00;96.20
9973;DHT22;5027;53.560;10.062;2023-02-04T16:20:56;9.90;96.60
9973;DHT22;5027;53.560;10.062;2023-02-04T16:23:23;9.90;96.60
9973;DHT22;5027;53.560;10.062;2023-02-04T16:25:52;9.90;96.60
9973;DHT22;5027;53.560;10.062;2023-02-04T16:28:19;9.80;96.60
9973;DHT22;5027;53.560;10.062;2023-02-04T16:30:46;9.80;96.90
9973;DHT22;5027;53.560;10.062;2023-02-04T16:33:13;10.10;96.20
9973;DHT22;5027;53.560;10.062;2023-02-04T16:36:01;10.20;96.00
9973;DHT22;5027;53.560;10.062;2023-02-04T16:38:29;10.10;95.80
9973;DHT22;5027;53.560;10.062;2023-02-04T16:40:56;10.00;96.20
9973;DHT22;5027;53.560;10.062;2023-02-04T16:43:23;9.90;96.50
9973;DHT22;5027;53.560;10.062;2023-02-04T16:45:50;9.90;96.90
9973;DHT22;5027;53.560;10.062;2023-02-04T16:48:17;9.90;96.80